createdAt,value
2023-04-12T00:00:56.078Z,87.12
2023-04-12T00:01:57.014Z,88.26
2023-04-12T00:02:56.135Z,88.57
2023-04-12T00:03:56.348Z,87.54
2023-04-12T00:04:56.064Z,87.64
2023-04-12T00:05:56.026Z,86.91
2023-04-12T00:06:55.996Z,88.67
2023-04-12T00:07:56.927Z,87.85
2023-04-12T00:08:55.984Z,86.81
2023-04-12T00:09:55.965Z,85.99
2023-04-12T00:10:55.964Z,86.71
2023-04-12T00:11:56.882Z,87.54
2023-04-12T00:12:56.832Z,86.60
2023-04-12T00:13:56.129Z,86.71
2023-04-12T00:14:55.919Z,86.91
2023-04-12T00:15:55.905Z,87.43
2023-04-12T00:16:55.850Z,87.43
2023-04-12T00:17:56.806Z,87.33
2023-04-12T00:18:55.959Z,87.06
2023-04-12T00:19:55.823Z,87.57
2023-04-12T00:20:55.823Z,88.78
2023-04-12T00:21:55.796Z,87.37
2023-04-12T00:22:56.762Z,87.88
2023-04-12T00:23:55.974Z,87.78
2023-04-12T00:24:55.758Z,87.16
2023-04-12T00:25:55.748Z,87.06
2023-04-12T00:26:55.952Z,87.27
2023-04-12T00:27:55.725Z,87.68
2023-04-12T00:28:56.649Z,87.88
2023-04-12T00:29:55.718Z,87.47
2023-04-12T00:30:56.731Z,88.20
2023-04-12T00:31:55.683Z,87.78
2023-04-12T00:32:55.717Z,90.68
2023-04-12T00:33:56.816Z,89.86
2023-04-12T00:34:55.670Z,89.03
2023-04-12T00:35:55.657Z,89.23
2023-04-12T00:36:55.636Z,88.82
2023-04-12T00:37:55.613Z,88.40
2023-04-12T00:38:56.580Z,89.29
2023-04-12T00:39:55.583Z,90.64
2023-04-12T00:40:55.597Z,88.88
2023-04-12T00:41:55.529Z,88.98
2023-04-12T00:42:55.543Z,89.50
2023-04-12T00:43:55.716Z,88.36
2023-04-12T00:44:56.490Z,87.85
2023-04-12T00:45:55.532Z,87.02
2023-04-12T00:46:55.533Z,87.33
2023-04-12T00:47:55.490Z,87.33
2023-04-12T00:48:55.463Z,87.23
2023-04-12T00:49:56.396Z,87.27
2023-04-12T00:50:56.385Z,87.47
2023-04-12T00:51:55.430Z,88.20
2023-04-12T00:52:55.454Z,87.99
2023-04-12T00:53:55.528Z,87.99
2023-04-12T00:54:55.380Z,89.13
2023-04-12T00:55:56.335Z,88.82
2023-04-12T00:56:55.384Z,89.54
2023-04-12T00:57:55.387Z,89.71
2023-04-12T00:58:55.385Z,88.51
2023-04-12T00:59:55.377Z,88.20
2023-04-12T01:00:55.334Z,88.51
2023-04-12T01:01:56.314Z,88.20
2023-04-12T01:02:55.422Z,89.92
2023-04-12T01:03:55.470Z,89.75
2023-04-12T01:04:55.232Z,88.71
2023-04-12T01:05:55.281Z,87.99
2023-04-12T01:06:56.188Z,88.40
2023-04-12T01:07:55.241Z,89.13
2023-04-12T01:08:55.225Z,88.51
2023-04-12T01:09:55.188Z,88.92
2023-04-12T01:10:55.176Z,88.20
2023-04-12T01:11:56.126Z,87.88
2023-04-12T01:12:55.150Z,87.47
2023-04-12T01:13:55.384Z,87.57
2023-04-12T01:14:56.138Z,87.99
2023-04-12T01:15:55.130Z,87.37
2023-04-12T01:16:56.020Z,87.47
2023-04-12T01:17:55.095Z,87.41
2023-04-12T01:18:55.120Z,87.72
2023-04-12T01:19:55.116Z,89.79
2023-04-12T01:20:55.065Z,89.38
2023-04-12T01:21:55.089Z,88.86
2023-04-12T01:22:55.986Z,89.17
2023-04-12T01:23:55.253Z,88.45
2023-04-12T01:24:55.036Z,87.82
2023-04-12T01:25:55.004Z,88.96
2023-04-12T01:26:54.988Z,89.07
2023-04-12T01:27:55.881Z,89.89
2023-04-12T01:28:54.930Z,92.34
2023-04-12T01:29:54.953Z,93.06
2023-04-12T01:30:54.936Z,93.79
2023-04-12T01:31:55.959Z,92.76
2023-04-12T01:32:55.886Z,92.13
2023-04-12T01:33:55.049Z,91.61
2023-04-12T01:34:54.876Z,89.44
2023-04-12T01:35:54.901Z,88.61
2023-04-12T01:36:54.914Z,90.16
2023-04-12T01:37:55.804Z,91.36
2023-04-12T01:38:54.815Z,91.88
2023-04-12T01:39:54.815Z,92.91
2023-04-12T01:40:54.778Z,89.09
2023-04-12T01:41:54.800Z,88.57
2023-04-12T01:42:54.790Z,86.60
2023-04-12T01:43:55.920Z,86.44
2023-04-12T01:44:54.744Z,86.44
2023-04-12T01:45:54.782Z,86.23
2023-04-12T01:46:54.737Z,86.96
2023-04-12T01:47:54.784Z,89.96
2023-04-12T01:48:55.634Z,90.68
2023-04-12T01:49:54.679Z,90.99
2023-04-12T01:50:54.677Z,90.78
2023-04-12T01:51:54.696Z,91.51
2023-04-12T01:52:54.687Z,91.16
2023-04-12T01:53:55.822Z,90.84
2023-04-12T01:54:54.623Z,89.40
2023-04-12T01:55:54.700Z,86.50
2023-04-12T01:56:54.613Z,86.13
2023-04-12T01:57:54.610Z,88.06
2023-04-12T01:58:54.592Z,88.98
2023-04-12T01:59:55.500Z,90.23
2023-04-12T02:00:54.587Z,91.36
2023-04-12T02:01:54.601Z,91.16
2023-04-12T02:02:54.592Z,91.05
2023-04-12T02:03:54.832Z,89.81
2023-04-12T02:04:54.487Z,88.98
2023-04-12T02:05:55.400Z,88.98
2023-04-12T02:06:54.455Z,88.06
2023-04-12T02:07:54.445Z,87.02
2023-04-12T02:08:54.462Z,85.88
2023-04-12T02:09:54.459Z,84.88
2023-04-12T02:10:55.366Z,85.92
2023-04-12T02:11:56.276Z,85.92
2023-04-12T02:12:54.443Z,84.92
2023-04-12T02:13:54.470Z,85.13
2023-04-12T02:14:54.380Z,86.10
2023-04-12T02:15:54.359Z,86.72
2023-04-12T02:16:54.396Z,86.52
2023-04-12T02:17:55.297Z,86.21
2023-04-12T02:18:54.351Z,86.35
2023-04-12T02:19:54.287Z,86.45
2023-04-12T02:20:54.277Z,86.97
2023-04-12T02:21:54.296Z,86.76
2023-04-12T02:22:55.252Z,88.11
2023-04-12T02:23:54.462Z,90.39
2023-04-12T02:24:54.234Z,91.02
2023-04-12T02:25:54.253Z,91.64
2023-04-12T02:26:54.231Z,89.42
2023-04-12T02:27:55.149Z,87.59
2023-04-12T02:28:54.214Z,87.49
2023-04-12T02:29:54.225Z,87.59
2023-04-12T02:30:54.231Z,86.76
2023-04-12T02:31:54.166Z,86.87
2023-04-12T02:32:55.105Z,86.87
2023-04-12T02:33:54.305Z,87.80
2023-04-12T02:34:54.153Z,87.07
2023-04-12T02:35:54.139Z,86.97
2023-04-12T02:36:54.134Z,87.49
2023-04-12T02:37:54.073Z,87.80
2023-04-12T02:38:55.027Z,88.01
2023-04-12T02:39:54.118Z,87.70
2023-04-12T02:40:54.109Z,87.18
2023-04-12T02:41:54.102Z,86.91
2023-04-12T02:42:54.034Z,88.84
2023-04-12T02:43:56.238Z,87.80
2023-04-12T02:44:54.032Z,87.22
2023-04-12T02:45:55.009Z,87.12
2023-04-12T02:46:54.011Z,87.01
2023-04-12T02:47:53.995Z,87.43
2023-04-12T02:48:53.969Z,87.43
2023-04-12T02:49:54.913Z,88.46
2023-04-12T02:50:53.997Z,88.78
2023-04-12T02:51:53.959Z,90.23
2023-04-12T02:52:53.922Z,89.71
2023-04-12T02:53:53.899Z,88.88
2023-04-12T02:54:54.839Z,88.67
2023-04-12T02:55:53.921Z,89.25
2023-04-12T02:56:53.878Z,88.53
2023-04-12T02:57:53.877Z,88.01
2023-04-12T02:58:53.839Z,87.80
2023-04-12T02:59:53.820Z,86.91
2023-04-12T03:00:54.796Z,87.84
2023-04-12T03:01:53.941Z,87.12
2023-04-12T03:02:53.946Z,87.32
2023-04-12T03:03:53.907Z,89.29
2023-04-12T03:04:53.779Z,91.78
2023-04-12T03:05:54.731Z,92.88
2023-04-12T03:06:53.771Z,93.40
2023-04-12T03:07:53.738Z,91.33
2023-04-12T03:08:53.714Z,90.70
2023-04-12T03:09:53.739Z,92.26
2023-04-12T03:10:54.724Z,90.70
2023-04-12T03:11:53.679Z,91.28
2023-04-12T03:12:53.687Z,91.08
2023-04-12T03:13:53.658Z,90.97
2023-04-12T03:14:53.643Z,90.77
2023-04-12T03:15:53.713Z,89.42
2023-04-12T03:16:54.577Z,89.11
2023-04-12T03:17:53.653Z,91.24
2023-04-12T03:18:53.637Z,90.31
2023-04-12T03:19:53.600Z,88.55
2023-04-12T03:20:53.636Z,88.86
2023-04-12T03:21:53.586Z,88.76
2023-04-12T03:22:54.485Z,90.00
2023-04-12T03:23:53.525Z,90.31
2023-04-12T03:24:53.506Z,90.93
2023-04-12T03:25:53.540Z,91.03
2023-04-12T03:26:53.473Z,91.45
2023-04-12T03:27:54.483Z,91.66
2023-04-12T03:28:53.500Z,88.55
2023-04-12T03:29:53.438Z,88.76
2023-04-12T03:30:53.490Z,89.58
2023-04-12T03:31:53.479Z,90.62
2023-04-12T03:32:54.361Z,86.79
2023-04-12T03:33:53.389Z,85.69
2023-04-12T03:34:53.398Z,88.07
2023-04-12T03:35:53.392Z,86.93
2023-04-12T03:36:53.463Z,88.18
2023-04-12T03:37:53.323Z,90.35
2023-04-12T03:38:54.373Z,91.80
2023-04-12T03:39:53.959Z,91.76
2023-04-12T03:40:53.320Z,91.66
2023-04-12T03:41:54.244Z,92.07
2023-04-12T03:42:54.272Z,90.41
2023-04-12T03:43:55.486Z,89.69
2023-04-12T03:44:54.220Z,89.38
2023-04-12T03:45:53.268Z,89.17
2023-04-12T03:46:53.255Z,86.79
2023-04-12T03:47:54.232Z,87.93
2023-04-12T03:48:55.137Z,88.65
2023-04-12T03:50:09.764Z,89.79
2023-04-12T03:50:55.701Z,91.14
2023-04-12T03:51:53.180Z,91.35
2023-04-12T03:52:54.137Z,91.76
2023-04-12T03:53:54.346Z,92.38
2023-04-12T03:54:55.036Z,92.44
2023-04-12T03:55:53.230Z,91.72
2023-04-12T03:56:54.068Z,91.41
2023-04-12T03:57:54.077Z,91.30
2023-04-12T03:58:53.080Z,90.37
2023-04-12T03:59:55.018Z,90.99
2023-04-12T04:00:53.988Z,90.06
2023-04-12T04:01:53.067Z,87.47
2023-04-12T04:02:54.069Z,87.57
2023-04-12T04:03:54.098Z,89.03
2023-04-12T04:04:54.960Z,90.58
2023-04-12T04:05:53.955Z,91.51
2023-04-12T04:06:53.952Z,91.61
2023-04-12T04:07:53.933Z,91.93
2023-04-12T04:08:53.931Z,91.30
2023-04-12T04:09:53.864Z,90.68
2023-04-12T04:10:53.874Z,90.89
2023-04-12T04:11:52.903Z,90.47
2023-04-12T04:12:53.868Z,89.65
2023-04-12T04:13:52.879Z,89.44
2023-04-12T04:14:52.872Z,90.06
2023-04-12T04:15:54.780Z,88.51
2023-04-12T04:16:53.859Z,89.23
2023-04-12T04:17:53.840Z,88.40
2023-04-12T04:18:53.783Z,88.40
2023-04-12T04:19:53.785Z,89.23
2023-04-12T04:20:52.815Z,87.68
2023-04-12T04:21:53.721Z,88.86
2023-04-12T04:22:52.790Z,90.58
2023-04-12T04:23:52.784Z,90.99
2023-04-12T04:24:52.760Z,90.89
2023-04-12T04:25:52.737Z,90.68
2023-04-12T04:26:53.860Z,90.99
2023-04-12T04:27:54.721Z,88.92
2023-04-12T04:28:53.946Z,88.71
2023-04-12T04:29:53.677Z,87.16
2023-04-12T04:30:53.651Z,87.16
2023-04-12T04:31:53.952Z,87.06
2023-04-12T04:32:54.521Z,89.23
2023-04-12T04:33:52.703Z,90.68
2023-04-12T04:34:52.612Z,89.65
2023-04-12T04:35:52.637Z,88.82
2023-04-12T04:36:53.571Z,88.30
2023-04-12T04:37:53.542Z,87.57
2023-04-12T04:38:54.444Z,87.68
2023-04-12T04:39:52.591Z,89.13
2023-04-12T04:40:52.551Z,88.09
2023-04-12T04:41:52.542Z,86.17
2023-04-12T04:42:53.495Z,86.79
2023-04-12T04:43:53.469Z,85.24
2023-04-12T04:44:54.389Z,86.79
2023-04-12T04:45:53.477Z,87.41
2023-04-12T04:46:53.497Z,85.27
2023-04-12T04:47:53.479Z,84.55
2023-04-12T04:48:52.446Z,84.65
2023-04-12T04:49:53.380Z,84.90
2023-04-12T04:50:52.435Z,85.31
2023-04-12T04:51:52.439Z,86.29
2023-04-12T04:52:53.410Z,87.22
2023-04-12T04:53:53.358Z,87.74
2023-04-12T04:54:52.392Z,86.29
2023-04-12T04:55:53.316Z,86.39
2023-04-12T04:56:52.403Z,87.32
2023-04-12T04:57:52.343Z,88.67
2023-04-12T04:58:53.606Z,89.15
2023-04-12T04:59:53.292Z,89.87
2023-04-12T05:00:53.348Z,90.87
2023-04-12T05:01:53.226Z,91.80
2023-04-12T05:02:52.431Z,89.73
2023-04-12T05:03:52.357Z,89.94
2023-04-12T05:04:52.231Z,88.18
2023-04-12T05:05:53.207Z,89.31
2023-04-12T05:06:53.167Z,88.69
2023-04-12T05:07:52.313Z,86.62
2023-04-12T05:08:53.142Z,85.48
2023-04-12T05:09:52.160Z,84.96
2023-04-12T05:10:53.117Z,86.52
2023-04-12T05:11:53.134Z,86.93
2023-04-12T05:12:54.044Z,88.45
2023-04-12T05:13:52.142Z,86.47
2023-04-12T05:14:53.059Z,86.17
2023-04-12T05:15:53.282Z,87.72
2023-04-12T05:16:53.073Z,87.72
2023-04-12T05:17:53.141Z,85.24
2023-04-12T05:18:53.956Z,84.41
2023-04-12T05:19:52.018Z,84.30
2023-04-12T05:20:53.004Z,85.13
2023-04-12T05:21:52.981Z,86.58
2023-04-12T05:22:52.963Z,88.55
2023-04-12T05:23:52.976Z,88.96
2023-04-12T05:25:33.767Z,85.13
2023-04-12T05:26:33.897Z,85.44
2023-04-12T05:27:33.752Z,86.13
2023-04-12T05:28:33.986Z,87.68
2023-04-12T05:29:33.767Z,88.51
2023-04-12T05:30:34.715Z,88.30
2023-04-12T05:31:33.800Z,86.33
2023-04-12T05:32:33.856Z,85.71
2023-04-12T05:33:33.720Z,86.02
2023-04-12T05:34:33.713Z,85.71
2023-04-12T05:35:33.759Z,85.57
2023-04-12T05:36:34.637Z,84.22
2023-04-12T05:37:33.768Z,84.33
2023-04-12T05:38:33.739Z,84.01
2023-04-12T05:39:34.407Z,84.64
2023-04-12T05:40:33.612Z,84.64
2023-04-12T05:41:33.752Z,84.33
2023-04-12T05:42:34.517Z,83.81
2023-04-12T05:43:33.668Z,83.81
2023-04-12T05:44:34.301Z,83.09
2023-04-12T05:45:33.783Z,82.78
2023-04-12T05:46:33.653Z,84.12
2023-04-12T05:47:34.533Z,84.43
2023-04-12T05:48:33.484Z,82.88
2023-04-12T05:49:33.612Z,84.33
2023-04-12T05:50:34.411Z,83.40
2023-04-12T05:51:40.983Z,83.91
2023-04-12T05:52:37.625Z,83.81
2023-04-12T05:53:33.593Z,84.01
2023-04-12T05:54:33.547Z,84.53
2023-04-12T05:55:34.485Z,82.67
2023-04-12T05:56:33.384Z,83.50
2023-04-12T05:57:33.443Z,84.19
2023-04-12T05:58:34.387Z,84.39
2023-04-12T05:59:33.430Z,83.67
2023-04-12T06:00:33.520Z,83.67
2023-04-12T06:01:33.404Z,83.98
2023-04-12T06:02:33.522Z,82.18
2023-04-12T06:03:34.390Z,82.70
2023-04-12T06:04:48.774Z,81.35
2023-04-12T06:05:34.950Z,82.50
2023-04-12T06:06:33.425Z,81.25
2023-04-12T06:07:33.306Z,81.67
2023-04-12T06:08:35.475Z,80.90
2023-04-12T06:09:33.504Z,81.21
2023-04-12T06:10:33.344Z,81.21
2023-04-12T06:11:33.298Z,80.70
2023-04-12T06:12:33.309Z,79.56
2023-04-12T06:13:33.240Z,80.08
2023-04-12T06:14:34.401Z,79.36
2023-04-12T06:15:33.405Z,80.35
2023-04-12T06:16:33.299Z,79.11
2023-04-12T06:17:33.138Z,79.32
2023-04-12T06:18:33.133Z,79.63
2023-04-12T06:19:33.136Z,79.94
2023-04-12T06:20:34.092Z,79.52
2023-04-12T06:21:33.160Z,79.80
2023-04-12T06:22:33.067Z,79.80
2023-04-12T06:23:33.098Z,78.77
2023-04-12T06:24:34.086Z,76.60
2023-04-12T06:25:33.244Z,77.32
2023-04-12T06:26:39.825Z,79.35
2023-04-12T06:27:34.589Z,77.80
2023-04-12T06:28:32.994Z,76.46
2023-04-12T06:29:32.961Z,76.77
2023-04-12T06:30:33.083Z,77.80
2023-04-12T06:31:34.182Z,78.69
2023-04-12T06:32:33.246Z,78.80
2023-04-12T06:33:33.023Z,77.25
2023-04-12T06:34:34.462Z,76.94
2023-04-12T06:35:32.924Z,75.81
2023-04-12T06:36:32.972Z,75.67
2023-04-12T06:37:33.943Z,76.59
2023-04-12T06:38:33.460Z,74.84
2023-04-12T06:39:33.069Z,75.05
2023-04-12T06:40:32.821Z,73.57
2023-04-12T06:41:32.899Z,74.50
2023-04-12T06:42:32.834Z,74.19
2023-04-12T06:43:33.770Z,75.32
2023-04-12T06:44:32.962Z,73.54
2023-04-12T06:45:32.909Z,74.57
2023-04-12T06:46:32.882Z,74.67
2023-04-12T06:47:32.782Z,73.43
2023-04-12T06:48:33.667Z,73.09
2023-04-12T06:49:32.753Z,71.24
2023-04-12T06:50:32.731Z,73.71
2023-04-12T06:51:32.698Z,74.74
2023-04-12T06:52:32.953Z,73.57
2023-04-12T06:53:33.627Z,72.24
2023-04-12T06:54:32.781Z,72.34
2023-04-12T06:55:32.618Z,72.13
2023-04-12T06:56:32.687Z,71.51
2023-04-12T06:57:32.644Z,71.37
2023-04-12T06:58:32.622Z,71.37
2023-04-12T06:59:33.547Z,70.14
2023-04-12T07:00:32.613Z,71.07
2023-04-12T07:01:33.429Z,71.04
2023-04-12T07:02:32.780Z,69.49
2023-04-12T07:03:32.659Z,71.45
2023-04-12T07:04:32.732Z,69.70
2023-04-12T07:05:33.454Z,69.98
2023-04-12T07:06:33.453Z,69.36
2023-04-12T07:07:32.487Z,69.15
2023-04-12T07:08:32.674Z,67.71
2023-04-12T07:09:32.502Z,68.54
2023-04-12T07:10:32.482Z,68.81
2023-04-12T07:11:33.447Z,69.12
2023-04-12T07:12:32.406Z,65.63
2023-04-12T07:13:32.437Z,67.89
2023-04-12T07:14:33.822Z,68.61
2023-04-12T07:15:32.351Z,66.83
2023-04-12T07:16:33.334Z,65.50
2023-04-12T07:17:32.527Z,64.19
2023-04-12T07:18:32.365Z,66.01
2023-04-12T07:19:34.181Z,66.31
2023-04-12T07:20:32.345Z,66.11
2023-04-12T07:21:33.333Z,67.44
2023-04-12T07:22:32.337Z,65.39
2023-04-12T07:23:32.264Z,65.36
2023-04-12T07:24:32.333Z,65.77
2023-04-12T07:25:33.181Z,64.13
2023-04-12T07:26:32.236Z,63.82
2023-04-12T07:27:33.162Z,63.49
2023-04-12T07:28:32.280Z,64.51
2023-04-12T07:29:32.179Z,64.72
2023-04-12T07:30:32.183Z,66.77
2023-04-12T07:31:32.209Z,63.59
2023-04-12T07:32:33.158Z,63.05
2023-04-12T07:33:32.197Z,62.63
2023-04-12T07:34:32.211Z,63.35
2023-04-12T07:35:32.203Z,62.54
2023-04-12T07:36:32.247Z,61.51
2023-04-12T07:37:33.032Z,64.25
2023-04-12T07:38:32.087Z,63.02
2023-04-12T07:39:32.739Z,63.32
2023-04-12T07:40:32.080Z,61.79
2023-04-12T07:41:32.063Z,61.99
2023-04-12T07:42:32.960Z,61.99
2023-04-12T07:43:32.043Z,60.56
2023-04-12T07:44:31.997Z,61.07
2023-04-12T07:45:32.007Z,60.42
2023-04-12T07:46:32.091Z,60.74
2023-04-12T07:47:33.763Z,60.74
2023-04-12T07:48:32.015Z,61.04
2023-04-12T07:49:31.992Z,60.33
2023-04-12T07:50:31.952Z,60.53
2023-04-12T07:51:31.940Z,60.22
2023-04-12T07:52:31.898Z,60.53
2023-04-12T07:53:33.828Z,61.76
2023-04-12T07:54:31.895Z,60.42
2023-04-12T07:55:31.887Z,60.91
2023-04-12T07:56:31.865Z,61.01
2023-04-12T07:57:33.654Z,61.63
2023-04-12T07:58:32.858Z,60.58
2023-04-12T07:59:31.862Z,59.76
2023-04-12T08:00:31.824Z,60.14
2023-04-12T08:01:31.828Z,59.32
2023-04-12T08:02:31.833Z,58.61
2023-04-12T08:03:32.841Z,59.80
2023-04-12T08:04:31.778Z,57.97
2023-04-12T08:05:31.876Z,57.76
2023-04-12T08:06:33.713Z,58.48
2023-04-12T08:07:31.789Z,56.53
2023-04-12T08:08:32.736Z,57.56
2023-04-12T08:09:31.664Z,58.86
2023-04-12T08:10:31.689Z,58.75
2023-04-12T08:11:32.537Z,58.34
2023-04-12T08:12:31.748Z,57.63
2023-04-12T08:13:32.606Z,58.73
2023-04-12T08:14:31.698Z,56.68
2023-04-12T08:15:31.706Z,55.76
2023-04-12T08:16:31.633Z,54.64
2023-04-12T08:17:31.735Z,55.15
2023-04-12T08:18:33.308Z,54.54
2023-04-12T08:19:31.645Z,55.36
2023-04-12T08:20:31.542Z,54.13
2023-04-12T08:21:31.529Z,54.95
2023-04-12T08:22:31.704Z,54.03
2023-04-12T08:23:32.462Z,54.61
2023-04-12T08:24:31.513Z,53.39
2023-04-12T08:25:31.476Z,52.78
2023-04-12T08:26:31.480Z,54.11
2023-04-12T08:27:31.784Z,51.45
2023-04-12T08:28:31.647Z,52.37
2023-04-12T08:29:32.583Z,54.08
2023-04-12T08:30:31.478Z,56.02
2023-04-12T08:31:31.563Z,52.83
2023-04-12T08:32:31.472Z,53.34
2023-04-12T08:33:31.850Z,51.71
2023-04-12T08:34:32.326Z,52.50
2023-04-12T08:35:31.362Z,53.01
2023-04-12T08:36:31.339Z,52.50
2023-04-12T08:37:31.358Z,49.65
2023-04-12T08:39:34.872Z,48.93
2023-04-12T08:40:31.365Z,50.97
2023-04-12T08:41:31.319Z,48.73
2023-04-12T08:42:31.324Z,49.34
2023-04-12T08:43:31.537Z,48.11
2023-04-12T08:44:32.415Z,48.63
2023-04-12T08:45:31.253Z,49.04
2023-04-12T08:46:31.306Z,50.13
2023-04-12T08:47:31.281Z,48.19
2023-04-12T08:48:31.194Z,46.87
2023-04-12T08:49:32.109Z,48.10
2023-04-12T08:50:31.180Z,46.77
2023-04-12T08:51:31.152Z,47.36
2023-04-12T08:52:31.133Z,47.16
2023-04-12T08:53:31.162Z,47.26
2023-04-12T08:54:31.146Z,47.66
2023-04-12T08:55:32.171Z,48.56
2023-04-12T08:56:31.095Z,47.85
2023-04-12T08:57:31.757Z,46.11
2023-04-12T08:58:31.204Z,47.24
2023-04-12T08:59:31.032Z,45.81
2023-04-12T09:00:31.187Z,46.11
2023-04-12T09:01:32.023Z,47.52
2023-04-12T09:02:31.307Z,46.30
2023-04-12T09:03:33.550Z,46.91
2023-04-12T09:04:31.096Z,45.48
2023-04-12T09:05:31.309Z,44.24
2023-04-12T09:06:30.990Z,43.84
2023-04-12T09:07:31.873Z,43.53
2023-04-12T09:08:30.955Z,46.78
2023-04-12T09:09:30.927Z,43.84
2023-04-12T09:10:31.056Z,44.85
2023-04-12T09:11:31.024Z,45.36
2023-04-12T09:12:31.894Z,44.24
2023-04-12T09:13:30.871Z,45.06
2023-04-12T09:14:30.870Z,44.95
2023-04-12T09:15:31.018Z,43.73
2023-04-12T09:16:30.846Z,44.95
2023-04-12T09:17:30.898Z,44.73
2023-04-12T09:18:31.841Z,43.91
2023-04-12T09:19:30.824Z,43.91
2023-04-12T09:20:31.671Z,44.63
2023-04-12T09:21:30.819Z,44.40
2023-04-12T09:22:30.794Z,41.88
2023-04-12T09:23:31.700Z,43.41
2023-04-12T09:24:30.761Z,44.63
2023-04-12T09:25:30.885Z,47.58
2023-04-12T09:26:30.689Z,45.42
2023-04-12T09:27:30.698Z,43.87
2023-04-12T09:28:31.746Z,43.24
2023-04-12T09:29:30.716Z,44.16
2023-04-12T09:30:30.649Z,44.44
2023-04-12T09:31:31.548Z,43.73
2023-04-12T09:32:30.742Z,43.41
2023-04-12T09:33:31.595Z,42.80
2023-04-12T09:34:30.581Z,42.29
2023-04-12T09:35:30.610Z,42.57
2023-04-12T09:36:30.632Z,40.95
2023-04-12T09:37:30.597Z,41.05
2023-04-12T09:38:31.520Z,40.95
2023-04-12T09:39:30.637Z,42.68
2023-04-12T09:40:30.581Z,40.02
2023-04-12T09:41:30.598Z,39.92
2023-04-12T09:42:33.703Z,40.02
2023-04-12T09:43:30.524Z,39.21
2023-04-12T09:44:31.419Z,38.81
2023-04-12T09:45:30.500Z,39.82
2023-04-12T09:46:30.597Z,38.81
2023-04-12T09:47:30.480Z,38.70
2023-04-12T09:48:30.509Z,39.82
2023-04-12T09:49:31.364Z,38.93
2023-04-12T09:50:30.450Z,40.94
2023-04-12T09:51:30.389Z,40.91
2023-04-12T09:52:32.368Z,37.77
2023-04-12T09:53:30.394Z,40.00
2023-04-12T09:54:31.301Z,41.71
2023-04-12T09:55:30.328Z,39.07
2023-04-12T09:56:30.316Z,39.46
2023-04-12T09:57:30.345Z,38.35
2023-04-12T09:58:31.662Z,39.26
2023-04-12T09:59:31.285Z,36.32
2023-04-12T10:00:30.435Z,36.63
2023-04-12T10:01:30.310Z,36.32
2023-04-12T10:02:30.467Z,36.30
2023-04-12T10:03:30.346Z,35.50
2023-04-12T10:04:31.356Z,36.39
2023-04-12T10:05:30.382Z,35.17
2023-04-12T10:06:30.281Z,34.88
2023-04-12T10:07:30.191Z,35.16
2023-04-12T10:08:30.256Z,34.74
2023-04-12T10:09:31.095Z,34.03
2023-04-12T10:10:30.164Z,35.44
2023-04-12T10:11:30.126Z,34.92
2023-04-12T10:12:30.155Z,36.93
2023-04-12T10:13:30.256Z,34.30
2023-04-12T10:14:31.071Z,34.50
2023-04-12T10:15:30.094Z,35.60
2023-04-12T10:16:30.143Z,32.78
2023-04-12T10:17:30.059Z,32.76
2023-04-12T10:18:30.058Z,33.87
2023-04-12T10:19:31.008Z,35.58
2023-04-12T10:20:31.003Z,32.66
2023-04-12T10:21:31.007Z,31.75
2023-04-12T10:22:29.999Z,32.78
2023-04-12T10:23:30.055Z,32.67
2023-04-12T10:24:30.053Z,33.28
2023-04-12T10:25:31.143Z,33.07
2023-04-12T10:26:30.034Z,34.27
2023-04-12T10:27:30.135Z,32.34
2023-04-12T10:28:30.187Z,31.84
2023-04-12T10:29:30.007Z,32.04
2023-04-12T10:30:29.924Z,33.25
2023-04-12T10:31:30.970Z,32.51
2023-04-12T10:32:29.935Z,33.20
2023-04-12T10:33:29.905Z,31.88
2023-04-12T10:34:29.869Z,31.26
2023-04-12T10:35:29.966Z,30.04
2023-04-12T10:36:29.981Z,29.83
2023-04-12T10:37:30.774Z,29.53
2023-04-12T10:38:29.886Z,30.63
2023-04-12T10:39:29.853Z,28.82
2023-04-12T10:40:29.777Z,29.52
2023-04-12T10:41:29.787Z,28.30
2023-04-12T10:42:29.786Z,29.41
2023-04-12T10:43:30.700Z,28.39
2023-04-12T10:44:29.771Z,30.10
2023-04-12T10:45:29.795Z,27.96
2023-04-12T10:46:29.738Z,26.96
2023-04-12T10:47:29.942Z,29.15
2023-04-12T10:48:29.743Z,28.64
2023-04-12T10:49:30.620Z,27.82
2023-04-12T10:50:29.628Z,26.82
2023-04-12T10:51:29.638Z,27.59
2023-04-12T10:52:29.617Z,26.40
2023-04-12T10:53:29.624Z,26.21
2023-04-12T10:54:29.609Z,26.79
2023-04-12T10:55:30.581Z,25.97
2023-04-12T10:56:32.097Z,25.86
2023-04-12T10:57:29.591Z,25.45
2023-04-12T10:58:29.547Z,25.13
2023-04-12T10:59:41.053Z,24.32
2023-04-12T11:00:32.135Z,25.00
2023-04-12T11:01:29.717Z,23.30
2023-04-12T11:02:29.813Z,23.60
2023-04-12T11:03:29.556Z,22.29
2023-04-12T11:04:29.565Z,23.18
2023-04-12T11:05:29.535Z,23.34
2023-04-12T11:06:30.462Z,21.34
2023-04-12T11:07:29.506Z,21.13
2023-04-12T11:08:29.833Z,21.92
2023-04-12T11:09:29.434Z,21.20
2023-04-12T11:10:29.837Z,22.47
2023-04-12T11:11:29.512Z,20.79
2023-04-12T11:12:30.343Z,20.28
2023-04-12T11:13:29.340Z,19.98
2023-04-12T11:14:29.348Z,19.71
2023-04-12T11:15:30.034Z,19.81
2023-04-12T11:16:29.340Z,21.97
2023-04-12T11:17:29.394Z,20.86
2023-04-12T11:18:35.921Z,19.07
2023-04-12T11:19:31.173Z,19.47
2023-04-12T11:20:29.260Z,19.56
2023-04-12T11:21:29.286Z,19.87
2023-04-12T11:22:29.265Z,19.29
2023-04-12T11:23:30.263Z,19.46
2023-04-12T11:24:29.267Z,18.96
2023-04-12T11:26:29.107Z,18.35
2023-04-12T11:27:29.202Z,18.34
2023-04-12T11:28:31.305Z,18.43
2023-04-12T11:29:29.957Z,19.01
2023-04-12T11:30:29.044Z,18.31
2023-04-12T11:31:29.038Z,19.29
2023-04-12T11:32:29.148Z,17.22
2023-04-12T11:33:29.005Z,16.93
2023-04-12T11:34:28.991Z,17.14
2023-04-12T11:35:29.928Z,19.09
2023-04-12T11:36:28.968Z,15.93
2023-04-12T11:37:28.950Z,18.37
2023-04-12T11:38:29.025Z,17.62
2023-04-12T11:39:30.589Z,18.17
2023-04-12T11:40:29.932Z,18.08
2023-04-12T11:41:28.904Z,20.54
2023-04-12T11:42:28.890Z,22.47
2023-04-12T11:43:28.910Z,23.79
2023-04-12T11:44:29.951Z,22.06
2023-04-12T11:45:28.883Z,20.23
2023-04-12T11:46:35.123Z,19.29
2023-04-12T11:47:28.870Z,19.56
2023-04-12T11:48:28.823Z,18.35
2023-04-12T11:49:28.835Z,18.58
2023-04-12T11:50:28.843Z,20.34
2023-04-12T11:51:32.208Z,20.97
2023-04-12T11:52:30.499Z,19.43
2023-04-12T11:53:28.820Z,19.86
2023-04-12T11:54:29.461Z,20.79
2023-04-12T11:55:28.754Z,24.09
2023-04-12T11:56:28.745Z,21.11
2023-04-12T11:57:28.705Z,22.38
2023-04-12T11:58:29.675Z,23.28
2023-04-12T11:59:28.693Z,25.60
2023-04-12T12:00:28.706Z,23.60
2023-04-12T12:01:28.695Z,26.40
2023-04-12T12:02:32.334Z,25.10
2023-04-12T12:03:31.359Z,25.41
2023-04-12T12:04:28.760Z,24.43
2023-04-12T12:05:28.914Z,26.23
2023-04-12T12:06:28.790Z,25.63
2023-04-12T12:07:28.825Z,25.53
2023-04-12T12:08:28.613Z,26.25
2023-04-12T12:09:29.476Z,26.26
2023-04-12T12:10:43.710Z,26.35
2023-04-12T12:11:29.609Z,26.77
2023-04-12T12:12:28.587Z,25.98
2023-04-12T12:13:28.529Z,26.29
2023-04-12T12:14:29.477Z,26.92
2023-04-12T12:15:28.518Z,27.25
2023-04-12T12:16:28.797Z,27.56
2023-04-12T12:17:28.559Z,28.88
2023-04-12T12:18:28.467Z,28.07
2023-04-12T12:19:29.370Z,28.77
2023-04-12T12:20:28.542Z,28.66
2023-04-12T12:21:28.421Z,29.77
2023-04-12T12:22:28.403Z,28.05
2023-04-12T12:23:28.406Z,28.07
2023-04-12T12:24:29.360Z,31.68
2023-04-12T12:25:28.445Z,27.74
2023-04-12T12:26:28.470Z,27.61
2023-04-12T12:27:28.386Z,26.68
2023-04-12T12:28:28.336Z,27.08
2023-04-12T12:29:29.256Z,26.66
2023-04-12T12:30:28.322Z,25.46
2023-04-12T12:31:28.638Z,25.33
2023-04-12T12:32:28.472Z,25.32
2023-04-12T12:33:38.728Z,24.82
2023-04-12T12:34:36.066Z,24.92
2023-04-12T12:35:28.290Z,24.63
2023-04-12T12:36:28.244Z,25.14
2023-04-12T12:37:28.220Z,26.15
2023-04-12T12:38:32.330Z,25.54
2023-04-12T12:39:28.257Z,25.85
2023-04-12T12:40:29.131Z,26.27
2023-04-12T12:41:28.195Z,26.40
2023-04-12T12:42:28.159Z,27.41
2023-04-12T12:43:29.013Z,27.12
2023-04-12T12:44:29.019Z,27.62
2023-04-12T12:45:29.050Z,27.22
2023-04-12T12:46:40.762Z,27.24
2023-04-12T12:47:29.657Z,27.54
2023-04-12T12:48:28.196Z,29.46
2023-04-12T12:49:28.090Z,28.45
2023-04-12T12:50:28.096Z,29.66
2023-04-12T12:51:28.987Z,28.76
2023-04-12T12:52:28.060Z,28.57
2023-04-12T12:53:28.017Z,29.27
2023-04-12T12:54:40.256Z,28.77
2023-04-12T12:55:29.541Z,28.77